Gulfport Biloxi International Airport
KGPT : now visible

Airfield :











YOU CAN JOIN US ON...

 
LOGIN :

Register | Disclaimer

   EN    FR    IT 

 









Legend :    VFR   Marginal VFR   IFR   Intensive IFR   Very Intensive IFR
Visi :
Ceiling :
>= 8 km
>= 3000ft
5 to 8 km
1000 to 3000 ft
1500m to 5 km
500 to 1000 ft
800 to 1500m
200 to 500 ft
< 800m
< 200 ft
Symbols :   Thunderstorms  Fog  Heavy snow  Heavy precipitations  Wind > 20 kt






- Airport Elevation : 28 ft
- IATA code : GPT


KGPT - Gulfport Biloxi International

CURRENT METAR :
  • 101106Z 03008KT 1 1/2SM +TSRA BR OVC017 16/16 A2981 RMK AO2 LTG DSNT ALQDS PRESRR P0014 T01610161

EXPIRED METARs :
  • 101053Z AUTO 01013G27KT 1 1/2SM +TSRA BR OVC017 16/16 A2979 RMK AO2 PK WND 35045/1034 WSHFT 1018 LTG DSNT ALQDS RAB24 TSB03 SLP087 P0157 T01560156
  • 101048Z AUTO 01019G32KT 1 1/4SM +TSRA BR FEW007 OVC015 16/16 A2975 RMK AO2 PK WND 35045/1034 WSHFT 1018 LTG DSNT ALQDS RAB24 TSB03 P0146
  • 101034Z AUTO 35034G45KT 1/4SM +TSRA FG BKN009 OVC013 16/15 A2976 RMK AO2 PK WND 35045/1034 WSHFT 1018 LTG DSNT ALQDS RAB24 TSB03 P0092 T01560150 RVRNO
  • 101031Z AUTO 34029G43KT 1/2SM +TSRA FG BKN009 OVC013 16/15 A2976 RMK AO2 PK WND 35043/1028 LTG DSNT ALQDS RAB24 TSB03 P0053 T01610150 RVRNO
  • 101019Z AUTO 33020G25KT 10SM TS FEW007 OVC013 17/16 A2975 RMK AO2 LTG DSNT ALQDS TSB03 PRESRR T01670156
  • 101009Z AUTO 08011KT 10SM TS OVC015 17/16 A2964 RMK AO2 LTG DSNT ALQDS TSB03 T01670156
  • 100953Z AUTO 07011G19KT 10SM BKN017 OVC023 16/16 A2967 RMK AO2 LTG DSNT ALQDS RAE47 TSE19 PRESFR SLP046 P0057 T01610156
  • 100943Z AUTO 09012KT 10SM -RA BKN015 OVC020 16/16 A2969 RMK AO2 LTG DSNT ALQDS TSE19 PRESFR P0057 T01610156
  • 100922Z AUTO 09013KT 4SM VCTS RA BR OVC011 16/16 A2972 RMK AO2 LTG DSNT NW-E TSE19 P0057 T01610156
  • 100853Z AUTO 04017G27KT 3/4SM +TSRA BR VV007 16/16 A2973 RMK AO2 PK WND 35045/0823 LTG DSNT ALQDS RAE0757B21 SLP068 P0200 60200 T01560156 55012 RVRNO
  • 100832Z AUTO 05017G45KT 3/4SM +TSRA BR VV009 16/15 A2976 RMK AO2 PK WND 35045/0823 LTG DSNT ALQDS RAE0757B21 P0063 T01610150 RVRNO
  • 100825Z AUTO 01028G45KT 1 1/2SM +TSRA BR BKN010 OVC019 17/15 A2972 RMK AO2 PK WND 35045/0823 LTG DSNT ALQDS RAE0757B21 P0016 T01670150

TAF KGPT
Valid from the 10 at 10:00 until the 11 at 06:00 UTC


100936Z 1010/1106 09013KT 4SM RA BR OVC011
TEMPO 1010/1013 VRB30G45KT 1SM +TSRA OVC015CB
FM101300 23016KT 5SM SHRA BR OVC020
FM101800 27012KT P6SM BKN035
KZHU FIR / North America



MET'MAP, your aeronautical weather chart ! - Copyright ORBIFLY December 2007 - Disclaimer

ORBIFLY MET'MAP TEAM :

Programming & Development : Alexandra Zaïnal
Concept & original design : Baudouin d'Aumeries
Assistance for programming : Marc-Olivier Méhu
Technical & hardware support : Manuel Goepfert

Contact : metmap@orbifly.com




SOURCES & CREDITS :

   NOAA       Earth
Advisory